Time;durP1;ratioP1;P1;durP2;ratioP2;P2;SDS_P1;SDS_P2;PMS_P1;PMS_P2;Temp;Humidity;BMP_temperature;BMP_pressure;BME280_temperature;BME280_humidity;BME280_pressure;Samples;Min_cycle;Max_cycle;Signal;HPM_P1;HPM_P2
2021/07/08 00:02:00;;;;;;;1.47;0.90;;;17.60;99.90;;;;;;1908040;75;21143;-83
2021/07/08 00:04:29;;;;;;;1.20;0.90;;;17.60;99.90;;;;;;1907996;75;21253;-82
2021/07/08 00:06:54;;;;;;;1.45;0.80;;;17.60;99.90;;;;;;1908331;75;21127;-82
2021/07/08 00:09:21;;;;;;;0.93;0.55;;;17.60;99.90;;;;;;1910204;75;21147;-83
2021/07/08 00:11:47;;;;;;;1.82;1.20;;;17.60;99.90;;;;;;1909120;75;21085;-83
2021/07/08 00:14:13;;;;;;;1.67;0.80;;;17.60;99.90;;;;;;1907994;75;21066;-83
2021/07/08 00:16:39;;;;;;;1.37;1.00;;;17.50;99.90;;;;;;1907579;75;21061;-83
2021/07/08 00:19:06;;;;;;;2.05;0.90;;;17.40;99.90;;;;;;1907458;75;21188;-82
2021/07/08 00:21:32;;;;;;;4.33;1.20;;;17.40;99.90;;;;;;1907472;75;21422;-82
2021/07/08 00:24:00;;;;;;;1.12;0.60;;;17.50;99.90;;;;;;1908430;75;21062;-83
2021/07/08 00:26:27;;;;;;;2.55;1.00;;;17.60;99.90;;;;;;1907683;75;21119;-83
2021/07/08 00:28:57;;;;;;;2.35;1.17;;;17.60;99.90;;;;;;1907202;75;21038;-82
2021/07/08 00:31:21;;;;;;;2.12;0.80;;;17.60;99.90;;;;;;1906118;75;21091;-83
2021/07/08 00:33:50;;;;;;;3.20;0.80;;;17.60;99.90;;;;;;1907138;75;21101;-83
2021/07/08 00:36:19;;;;;;;1.62;0.70;;;17.60;99.90;;;;;;1907125;75;21541;-82
2021/07/08 00:38:45;;;;;;;0.50;0.50;;;17.60;99.90;;;;;;1907117;75;21147;-81
2021/07/08 00:41:11;;;;;;;0.82;0.60;;;17.60;99.90;;;;;;1906975;75;21061;-82
2021/07/08 00:43:37;;;;;;;0.60;0.60;;;17.50;99.90;;;;;;1906628;75;21061;-81
2021/07/08 00:46:04;;;;;;;3.27;0.90;;;17.50;99.90;;;;;;1906785;75;21066;-81
2021/07/08 00:48:30;;;;;;;5.12;1.25;;;17.50;99.90;;;;;;1906640;75;21163;-82
2021/07/08 00:50:56;;;;;;;7.55;0.82;;;17.50;99.90;;;;;;1907141;75;21061;-81
2021/07/08 00:53:22;;;;;;;3.02;0.88;;;17.40;99.90;;;;;;1906836;75;21142;-81
2021/07/08 00:55:48;;;;;;;2.25;0.90;;;17.30;99.90;;;;;;1906756;75;21198;-79
2021/07/08 00:58:14;;;;;;;12.18;1.00;;;17.30;99.90;;;;;;1906782;75;21070;-79
2021/07/08 01:00:41;;;;;;;1.45;0.80;;;17.40;99.90;;;;;;1906918;75;21126;-79
2021/07/08 01:03:10;;;;;;;3.00;0.98;;;17.40;99.90;;;;;;1906967;75;21045;-79
2021/07/08 01:05:36;;;;;;;0.55;0.55;;;17.40;99.90;;;;;;1907071;75;21069;-79
2021/07/08 01:08:04;;;;;;;1.25;1.10;;;17.30;99.90;;;;;;1906981;75;21042;-79
2021/07/08 01:10:30;;;;;;;4.90;0.80;;;17.30;99.90;;;;;;1906674;75;21074;-78
2021/07/08 01:12:56;;;;;;;1.27;1.05;;;17.30;99.90;;;;;;1906683;75;21045;-79
2021/07/08 01:15:22;;;;;;;2.60;1.25;;;17.30;99.90;;;;;;1906556;75;21081;-79
2021/07/08 01:17:49;;;;;;;4.85;1.22;;;17.20;99.90;;;;;;1906598;75;21610;-80
2021/07/08 01:20:17;;;;;;;3.40;1.20;;;17.20;99.90;;;;;;1906624;75;21081;-80
2021/07/08 01:22:44;;;;;;;1.40;1.07;;;17.10;99.90;;;;;;1907671;73;21131;-80
2021/07/08 01:25:10;;;;;;;3.30;0.95;;;17.20;99.90;;;;;;1912499;74;21065;-79
2021/07/08 01:27:36;;;;;;;2.05;0.80;;;17.20;99.90;;;;;;1906769;75;21192;-80
2021/07/08 01:30:02;;;;;;;2.65;1.05;;;17.20;99.90;;;;;;1906608;75;21061;-79
2021/07/08 01:32:28;;;;;;;1.37;0.80;;;17.20;99.90;;;;;;1906746;74;21125;-79
2021/07/08 01:34:54;;;;;;;2.10;0.88;;;17.10;99.90;;;;;;1906730;75;21220;-80
2021/07/08 01:37:21;;;;;;;1.22;0.80;;;17.10;99.90;;;;;;1906729;75;21108;-80
2021/07/08 01:39:47;;;;;;;0.95;0.70;;;17.00;99.90;;;;;;1906652;75;21135;-79
2021/07/08 01:42:13;;;;;;;1.37;0.93;;;17.00;99.90;;;;;;1906832;75;21073;-80
2021/07/08 01:44:39;;;;;;;1.77;1.25;;;16.90;99.90;;;;;;1906798;75;21223;-81
2021/07/08 01:47:05;;;;;;;2.12;1.22;;;17.00;99.90;;;;;;1906619;75;21038;-81
2021/07/08 01:49:31;;;;;;;1.57;0.88;;;17.10;99.90;;;;;;1906703;75;21076;-81
2021/07/08 01:51:57;;;;;;;1.35;1.20;;;17.10;99.90;;;;;;1884406;75;21484;-80
2021/07/08 01:54:23;;;;;;;7.05;1.00;;;17.10;99.90;;;;;;1907174;75;21579;-80
2021/07/08 01:56:50;;;;;;;7.53;1.35;;;17.20;99.90;;;;;;1906803;75;21445;-79
2021/07/08 01:59:16;;;;;;;1.42;0.98;;;17.20;99.90;;;;;;1907350;75;21518;-81
2021/07/08 02:01:42;;;;;;;2.83;0.88;;;17.20;99.90;;;;;;1909197;75;21059;-82
2021/07/08 02:04:08;;;;;;;1.80;1.02;;;17.20;99.90;;;;;;1909633;75;21126;-81
2021/07/08 02:06:34;;;;;;;5.10;1.30;;;17.20;99.90;;;;;;1884172;75;21413;-81
2021/07/08 02:09:00;;;;;;;1.02;0.93;;;17.10;99.90;;;;;;1906704;75;21061;-82
2021/07/08 02:11:26;;;;;;;1.30;1.17;;;17.10;99.90;;;;;;1906566;75;21061;-81
2021/07/08 02:13:52;;;;;;;2.50;1.37;;;17.10;99.90;;;;;;1906687;75;21069;-80
2021/07/08 02:16:19;;;;;;;3.95;1.62;;;17.10;99.90;;;;;;1906554;75;21124;-80
2021/07/08 02:18:46;;;;;;;7.08;1.37;;;17.20;99.90;;;;;;1906732;75;21069;-80
2021/07/08 02:21:13;;;;;;;4.20;1.30;;;17.20;99.90;;;;;;1906679;75;21574;-79
2021/07/08 02:23:39;;;;;;;2.20;1.60;;;17.30;99.90;;;;;;1906574;75;21638;-80
2021/07/08 02:26:05;;;;;;;4.37;1.77;;;17.40;99.90;;;;;;1906919;75;21434;-81
2021/07/08 02:28:31;;;;;;;5.65;1.30;;;17.40;99.90;;;;;;1906730;75;21522;-81
2021/07/08 02:30:57;;;;;;;2.37;1.45;;;17.30;99.90;;;;;;1907079;75;21494;-81
2021/07/08 02:33:23;;;;;;;3.35;1.40;;;17.30;99.90;;;;;;1907222;75;21422;-81
2021/07/08 02:35:50;;;;;;;1.52;1.15;;;17.30;99.90;;;;;;1907140;75;21579;-81
2021/07/08 02:38:16;;;;;;;1.30;1.20;;;17.30;99.90;;;;;;1906946;75;21423;-82
2021/07/08 02:40:42;;;;;;;2.55;1.10;;;17.20;99.90;;;;;;1906958;75;21481;-82
2021/07/08 02:43:08;;;;;;;0.90;0.90;;;17.20;99.90;;;;;;1906982;75;21437;-81
2021/07/08 02:45:34;;;;;;;1.47;1.20;;;17.20;99.90;;;;;;1906861;75;21127;-81
2021/07/08 02:48:00;;;;;;;3.00;0.98;;;17.20;99.90;;;;;;1907064;75;21026;-81
2021/07/08 02:50:26;;;;;;;2.72;1.55;;;17.10;99.90;;;;;;1906832;75;21156;-81
2021/07/08 02:52:54;;;;;;;1.67;1.20;;;17.10;99.90;;;;;;1907035;75;21559;-81
2021/07/08 02:55:20;;;;;;;3.75;1.32;;;17.10;99.90;;;;;;1906838;75;21630;-81
2021/07/08 02:57:46;;;;;;;1.20;1.10;;;17.10;99.90;;;;;;1907022;75;21380;-81
2021/07/08 03:00:12;;;;;;;4.35;1.42;;;17.10;99.90;;;;;;1906860;75;21506;-81
2021/07/08 03:02:39;;;;;;;1.22;1.10;;;17.20;99.90;;;;;;1906812;75;21644;-81
2021/07/08 03:05:06;;;;;;;1.80;0.98;;;17.10;99.90;;;;;;1907070;75;21062;-81
2021/07/08 03:07:32;;;;;;;1.10;1.10;;;17.10;99.90;;;;;;1907132;75;21053;-81
2021/07/08 03:09:58;;;;;;;1.72;1.22;;;17.10;99.90;;;;;;1907132;75;21057;-81
2021/07/08 03:12:24;;;;;;;5.15;1.37;;;17.10;99.90;;;;;;1906966;75;21029;-82
2021/07/08 03:14:50;;;;;;;1.87;1.55;;;17.00;99.90;;;;;;1907037;75;21123;-81
2021/07/08 03:17:16;;;;;;;1.75;1.25;;;16.90;99.90;;;;;;1906808;75;21026;-81
2021/07/08 03:19:42;;;;;;;4.25;1.20;;;17.00;99.90;;;;;;1907001;75;21127;-81
2021/07/08 03:22:08;;;;;;;3.83;1.47;;;17.00;99.90;;;;;;1906866;75;21203;-81
2021/07/08 03:24:35;;;;;;;2.52;1.47;;;17.10;99.90;;;;;;1907031;75;21139;-80
2021/07/08 03:27:01;;;;;;;2.72;1.37;;;17.00;99.90;;;;;;1906962;75;21022;-81
2021/07/08 03:29:27;;;;;;;1.82;1.72;;;17.00;99.90;;;;;;1907034;75;21091;-81
2021/07/08 03:31:53;;;;;;;3.70;1.80;;;16.90;99.90;;;;;;1907086;75;21098;-81
2021/07/08 03:34:19;;;;;;;1.70;1.42;;;16.80;99.90;;;;;;1906970;75;21484;-81
2021/07/08 03:36:45;;;;;;;8.85;1.60;;;16.80;99.90;;;;;;1906795;75;21536;-82
2021/07/08 03:39:11;;;;;;;3.42;1.75;;;16.80;99.90;;;;;;1912109;74;21476;-82
2021/07/08 03:41:37;;;;;;;10.58;2.10;;;16.90;99.90;;;;;;1915762;74;21053;-82
2021/07/08 03:44:04;;;;;;;8.55;1.50;;;16.90;99.90;;;;;;1906780;75;21102;-81
2021/07/08 03:46:30;;;;;;;4.12;1.87;;;17.00;99.90;;;;;;1907158;75;21062;-81
2021/07/08 03:48:56;;;;;;;2.40;1.35;;;17.00;99.90;;;;;;1917454;74;21078;-82
2021/07/08 03:51:22;;;;;;;5.15;1.57;;;17.00;99.90;;;;;;1906916;75;21078;-81
2021/07/08 03:53:48;;;;;;;2.00;1.40;;;17.00;99.90;;;;;;1907020;75;21101;-82
2021/07/08 03:56:14;;;;;;;6.05;1.95;;;17.00;99.90;;;;;;1906800;75;21086;-82
2021/07/08 03:58:41;;;;;;;2.20;1.72;;;16.90;99.90;;;;;;1906989;75;21065;-82
2021/07/08 04:01:07;;;;;;;2.55;1.62;;;16.90;99.90;;;;;;1906932;75;21077;-81
2021/07/08 04:03:34;;;;;;;2.33;1.77;;;16.90;99.90;;;;;;1907136;75;21061;-82
2021/07/08 04:06:00;;;;;;;2.40;1.95;;;16.90;99.90;;;;;;1925164;74;21065;-81
2021/07/08 04:08:26;;;;;;;2.33;1.37;;;16.90;99.90;;;;;;1909989;73;21147;-81
2021/07/08 04:10:52;;;;;;;1.90;1.65;;;16.90;99.90;;;;;;1907628;75;21059;-81
2021/07/08 04:13:18;;;;;;;1.62;1.50;;;16.90;99.90;;;;;;1914315;74;21065;-81
2021/07/08 04:15:44;;;;;;;2.10;1.52;;;17.00;99.90;;;;;;1907636;75;21110;-81
2021/07/08 04:18:10;;;;;;;2.47;1.60;;;17.00;99.90;;;;;;1907690;75;21066;-81
2021/07/08 04:20:36;;;;;;;2.22;2.05;;;16.90;99.90;;;;;;1884850;75;21038;-82
2021/07/08 04:23:02;;;;;;;1.87;1.72;;;17.00;99.90;;;;;;1907570;75;21101;-81
2021/07/08 04:25:29;;;;;;;4.15;1.80;;;17.00;99.90;;;;;;1907820;75;21153;-81
2021/07/08 04:27:55;;;;;;;7.72;2.02;;;17.10;99.90;;;;;;1907579;75;21098;-82
2021/07/08 04:30:21;;;;;;;10.28;1.72;;;17.00;99.90;;;;;;1908190;74;21062;-81
2021/07/08 04:32:47;;;;;;;4.60;1.95;;;16.90;99.90;;;;;;1910425;74;21075;-82
2021/07/08 04:35:17;;;;;;;1.90;1.67;;;17.00;99.90;;;;;;1909578;74;21031;-80
2021/07/08 04:37:42;;;;;;;4.15;2.30;;;17.00;99.90;;;;;;1907347;75;21082;-80
2021/07/08 04:40:09;;;;;;;3.30;1.70;;;17.00;99.90;;;;;;1908021;75;21134;-82
2021/07/08 04:42:35;;;;;;;10.40;2.45;;;17.00;99.90;;;;;;1907980;75;21052;-81
2021/07/08 04:45:01;;;;;;;3.92;2.40;;;17.10;99.90;;;;;;1907646;75;21066;-80
2021/07/08 04:47:27;;;;;;;3.90;2.40;;;17.00;99.90;;;;;;1907493;75;21069;-82
2021/07/08 04:49:53;;;;;;;2.37;2.17;;;17.10;99.90;;;;;;1907528;75;21038;-82
2021/07/08 04:52:19;;;;;;;3.70;2.10;;;17.10;99.90;;;;;;1907578;75;21117;-80
2021/07/08 04:54:45;;;;;;;3.05;2.20;;;17.10;99.90;;;;;;1907524;75;21065;-81
2021/07/08 04:57:12;;;;;;;5.67;2.50;;;17.20;99.90;;;;;;1907511;75;21069;-82
2021/07/08 04:59:38;;;;;;;6.50;2.30;;;17.20;99.90;;;;;;1907689;75;21034;-80
2021/07/08 05:02:05;;;;;;;5.08;2.05;;;17.20;99.90;;;;;;1908515;75;21558;-82
2021/07/08 05:04:31;;;;;;;3.72;2.22;;;17.20;99.90;;;;;;1907769;75;21057;-82
2021/07/08 05:06:57;;;;;;;4.10;2.35;;;17.20;99.90;;;;;;1907634;75;21526;-82
2021/07/08 05:09:24;;;;;;;4.67;2.80;;;17.20;99.90;;;;;;1907676;75;21030;-79
2021/07/08 05:11:50;;;;;;;3.72;2.25;;;17.20;99.90;;;;;;1907389;75;21102;-78
2021/07/08 05:14:17;;;;;;;6.15;2.37;;;17.30;99.90;;;;;;1907592;75;21207;-79
2021/07/08 05:16:43;;;;;;;4.75;2.77;;;17.30;99.90;;;;;;1907413;75;21143;-79
2021/07/08 05:19:09;;;;;;;5.78;2.83;;;17.40;99.90;;;;;;1907386;75;21081;-80
2021/07/08 05:21:36;;;;;;;4.37;2.60;;;17.40;99.90;;;;;;1906947;75;21081;-80
2021/07/08 05:24:03;;;;;;;10.65;2.77;;;17.40;99.90;;;;;;1907339;75;21465;-86
2021/07/08 05:26:29;;;;;;;3.33;2.27;;;17.40;99.90;;;;;;1909107;75;21153;-83
2021/07/08 05:28:55;;;;;;;6.33;2.58;;;17.40;99.90;;;;;;1907906;75;21040;-87
2021/07/08 05:31:21;;;;;;;8.48;2.75;;;17.50;99.90;;;;;;1907739;75;21045;-84
2021/07/08 05:33:47;;;;;;;8.25;3.05;;;17.70;99.90;;;;;;1907838;75;21138;-85
2021/07/08 05:36:16;;;;;;;4.50;2.08;;;17.90;99.90;;;;;;1907465;75;21118;-89
2021/07/08 05:38:44;;;;;;;4.25;2.60;;;17.90;99.90;;;;;;1907725;75;21164;-87
2021/07/08 05:41:10;;;;;;;12.78;2.42;;;17.90;99.90;;;;;;1908727;75;21098;-86
2021/07/08 05:43:36;;;;;;;10.72;2.80;;;17.90;99.90;;;;;;1908045;75;21179;-87
2021/07/08 05:46:02;;;;;;;3.83;2.37;;;17.70;99.90;;;;;;1907909;75;21002;-86
2021/07/08 05:48:30;;;;;;;4.40;2.65;;;17.60;99.90;;;;;;1907781;75;21129;-88
2021/07/08 05:50:56;;;;;;;4.80;2.77;;;17.60;99.90;;;;;;1907841;75;21046;-83
2021/07/08 05:53:23;;;;;;;3.62;2.30;;;17.60;99.90;;;;;;1907650;75;21066;-87
2021/07/08 05:55:49;;;;;;;11.78;2.83;;;17.70;99.90;;;;;;1907737;75;21117;-86
2021/07/08 05:58:15;;;;;;;8.38;2.27;;;17.70;99.90;;;;;;1907464;75;21065;-85
2021/07/08 06:00:41;;;;;;;6.75;2.45;;;17.70;99.90;;;;;;1907476;75;21113;-87
2021/07/08 06:03:07;;;;;;;8.25;3.02;;;17.70;99.90;;;;;;1908011;75;21094;-87
2021/07/08 06:05:34;;;;;;;7.53;3.22;;;17.70;99.90;;;;;;1907458;75;21098;-82
2021/07/08 06:08:01;;;;;;;4.35;2.27;;;17.80;99.90;;;;;;1907350;75;21136;-83
2021/07/08 06:10:29;;;;;;;5.67;2.47;;;17.80;99.90;;;;;;1910680;73;21118;-87
2021/07/08 06:12:55;;;;;;;7.37;2.40;;;17.90;99.90;;;;;;1907980;75;21090;-88
2021/07/08 06:15:22;;;;;;;7.45;2.08;;;18.10;99.90;;;;;;1914870;74;21081;-84
2021/07/08 06:17:48;;;;;;;3.25;2.60;;;18.10;99.90;;;;;;1908371;75;21035;-90
2021/07/08 06:20:15;;;;;;;9.78;2.98;;;18.10;99.90;;;;;;1908946;75;21127;-89
2021/07/08 06:22:41;;;;;;;6.45;2.62;;;18.10;99.90;;;;;;1909322;75;21090;-89
2021/07/08 06:25:07;;;;;;;3.42;2.20;;;18.20;99.90;;;;;;1908916;75;21074;-88
2021/07/08 06:27:34;;;;;;;3.75;2.17;;;18.40;99.90;;;;;;1908886;75;21128;-91
2021/07/08 06:30:00;;;;;;;5.87;2.35;;;18.60;99.90;;;;;;1908521;75;21073;-87
2021/07/08 06:32:26;;;;;;;2.52;2.33;;;18.90;99.90;;;;;;1907948;75;21164;-85
2021/07/08 06:34:52;;;;;;;5.72;1.92;;;19.10;99.90;;;;;;1908158;75;21086;-89
2021/07/08 06:37:26;;;;;;;5.12;2.10;;;19.20;99.90;;;;;;1908646;75;21017;-88
2021/07/08 06:39:46;;;;;;;4.05;1.90;;;19.10;99.90;;;;;;1904203;75;21086;-89
2021/07/08 06:42:12;;;;;;;3.52;2.05;;;19.00;99.90;;;;;;1908177;75;21047;-88
2021/07/08 06:44:39;;;;;;;10.45;2.42;;;19.10;99.90;;;;;;1908322;75;21039;-84
2021/07/08 06:47:05;;;;;;;3.45;2.00;;;19.10;99.90;;;;;;1907386;75;21134;-82
2021/07/08 06:49:34;;;;;;;6.30;1.90;;;19.30;99.90;;;;;;1906983;75;21077;-80
2021/07/08 06:51:59;;;;;;;4.55;2.40;;;19.40;99.90;;;;;;1906597;75;21207;-78
2021/07/08 06:54:25;;;;;;;6.12;1.90;;;19.30;99.90;;;;;;1906867;75;21037;-79
2021/07/08 06:56:51;;;;;;;3.77;2.35;;;19.20;99.90;;;;;;1906867;75;21143;-79
2021/07/08 06:59:18;;;;;;;2.10;1.92;;;19.00;99.90;;;;;;1906959;75;21127;-80
2021/07/08 07:01:44;;;;;;;3.42;1.95;;;18.90;99.90;;;;;;1906990;75;21069;-78
2021/07/08 07:04:10;;;;;;;4.87;2.25;;;18.70;99.90;;;;;;1907108;75;21081;-77
2021/07/08 07:06:36;;;;;;;3.15;2.37;;;18.70;99.90;;;;;;1907173;75;21070;-78
2021/07/08 07:09:02;;;;;;;3.65;1.92;;;18.60;99.90;;;;;;1907108;74;21151;-78
2021/07/08 07:11:28;;;;;;;12.37;5.65;;;18.50;99.90;;;;;;1907107;75;21139;-80
2021/07/08 07:13:55;;;;;;;4.30;2.15;;;18.60;99.90;;;;;;1907129;75;21061;-79
2021/07/08 07:16:22;;;;;;;5.42;2.62;;;18.50;99.90;;;;;;1907236;75;21046;-79
2021/07/08 07:18:48;;;;;;;2.27;2.08;;;18.60;99.90;;;;;;1907247;75;21066;-78
2021/07/08 07:21:14;;;;;;;2.45;2.25;;;18.70;99.90;;;;;;1907128;75;21131;-78
2021/07/08 07:23:42;;;;;;;9.05;2.60;;;18.60;99.90;;;;;;1907222;75;21120;-80
2021/07/08 07:26:08;;;;;;;9.58;2.83;;;18.60;99.90;;;;;;1907134;74;21091;-79
2021/07/08 07:28:34;;;;;;;6.90;2.77;;;18.60;99.90;;;;;;1907388;75;21069;-79
2021/07/08 07:31:00;;;;;;;4.40;2.30;;;18.70;99.90;;;;;;1907287;75;21090;-81
2021/07/08 07:33:26;;;;;;;2.77;2.17;;;18.80;99.90;;;;;;1907123;75;21065;-82
2021/07/08 07:35:53;;;;;;;4.28;2.72;;;19.00;99.90;;;;;;1907001;75;21034;-81
2021/07/08 07:38:19;;;;;;;5.97;2.12;;;18.80;99.90;;;;;;1907118;75;21094;-79
2021/07/08 07:40:48;;;;;;;8.48;2.40;;;18.90;99.90;;;;;;1884562;75;21138;-80
2021/07/08 07:43:13;;;;;;;7.90;3.02;;;19.00;99.90;;;;;;1906526;75;21113;-81
2021/07/08 07:45:41;;;;;;;3.30;2.52;;;19.20;99.90;;;;;;1906992;75;21128;-79
2021/07/08 07:48:07;;;;;;;5.22;2.37;;;19.30;99.90;;;;;;1907169;75;21180;-79
2021/07/08 07:50:33;;;;;;;4.12;2.60;;;19.20;99.90;;;;;;1907196;75;21128;-79
2021/07/08 07:53:02;;;;;;;8.10;3.00;;;19.30;99.90;;;;;;1906990;75;21082;-78
2021/07/08 07:55:28;;;;;;;2.62;2.30;;;19.30;99.90;;;;;;1907045;75;21142;-82
2021/07/08 07:57:54;;;;;;;3.50;2.65;;;19.40;99.90;;;;;;1907919;75;21065;-81
2021/07/08 08:00:21;;;;;;;5.53;2.42;;;19.50;99.90;;;;;;1906987;75;21104;-79
2021/07/08 08:02:47;;;;;;;3.52;2.40;;;19.60;99.90;;;;;;1907001;75;21062;-79
2021/07/08 08:10:28;;;;;;;13.78;3.72;;;19.70;99.90;;;;;;1908234;75;21140;-84
2021/07/08 08:12:54;;;;;;;13.58;3.20;;;19.60;99.90;;;;;;1907198;75;21127;-83
2021/07/08 08:15:20;;;;;;;7.35;2.80;;;19.50;99.90;;;;;;1907177;75;21107;-86
2021/07/08 08:17:48;;;;;;;11.20;3.33;;;19.40;99.90;;;;;;1907212;75;21065;-87
2021/07/08 08:20:14;;;;;;;8.88;3.22;;;19.30;99.90;;;;;;1907547;75;21506;-86
2021/07/08 08:22:41;;;;;;;13.68;3.00;;;19.40;99.90;;;;;;1884996;75;21533;-84
2021/07/08 08:25:07;;;;;;;4.17;2.50;;;19.70;99.90;;;;;;1907937;75;21094;-82
2021/07/08 08:27:33;;;;;;;6.03;3.33;;;19.80;99.90;;;;;;1907465;75;21129;-83
2021/07/08 08:30:00;;;;;;;15.20;4.60;;;20.10;99.90;;;;;;1907130;75;21061;-87
2021/07/08 08:32:27;;;;;;;45.58;6.58;;;20.10;99.90;;;;;;1907660;75;21106;-83
2021/07/08 08:34:53;;;;;;;14.90;3.45;;;19.80;99.90;;;;;;1907874;75;21086;-85
2021/07/08 08:37:19;;;;;;;7.80;2.80;;;19.90;99.90;;;;;;1907361;75;21070;-88
2021/07/08 08:39:45;;;;;;;35.43;6.00;;;20.10;99.90;;;;;;1907164;75;21135;-81
2021/07/08 08:42:11;;;;;;;5.95;3.70;;;20.40;99.90;;;;;;1907516;75;21164;-87
2021/07/08 08:44:37;;;;;;;8.88;3.60;;;20.50;99.90;;;;;;1908185;75;21163;-86
2021/07/08 08:47:03;;;;;;;3.72;2.92;;;20.60;99.90;;;;;;1907591;75;21098;-88
2021/07/08 08:49:29;;;;;;;7.50;3.05;;;20.80;99.90;;;;;;1907720;75;21038;-90
2021/07/08 08:51:56;;;;;;;7.67;3.15;;;21.10;99.90;;;;;;1908310;75;21074;-90
2021/07/08 08:54:22;;;;;;;3.52;2.80;;;21.50;99.90;;;;;;1908591;75;21082;-91
2021/07/08 08:56:48;;;;;;;5.40;2.87;;;21.60;99.90;;;;;;1908386;75;21085;-88
2021/07/08 08:59:14;;;;;;;4.60;2.40;;;21.90;99.90;;;;;;1925311;72;21121;-92
2021/07/08 09:01:40;;;;;;;3.30;2.65;;;22.20;99.90;;;;;;1925182;72;21162;-87
2021/07/08 09:04:06;;;;;;;5.87;2.95;;;21.70;99.90;;;;;;1923690;72;21036;-87
2021/07/08 09:06:32;;;;;;;6.37;2.87;;;21.80;99.90;;;;;;1922158;75;21452;-89
2021/07/08 09:08:58;;;;;;;5.97;2.17;;;22.10;99.90;;;;;;1922522;75;21480;-88
2021/07/08 09:11:25;;;;;;;2.95;2.08;;;22.10;99.90;;;;;;1922489;75;21029;-90
2021/07/08 09:13:52;;;;;;;3.05;2.60;;;22.20;99.90;;;;;;1922586;75;21064;-92
2021/07/08 09:16:18;;;;;;;4.75;2.42;;;22.60;99.90;;;;;;1922839;75;21060;-89
2021/07/08 09:18:44;;;;;;;2.15;1.95;;;22.20;99.90;;;;;;1922934;75;21069;-88
2021/07/08 09:21:10;;;;;;;5.50;2.40;;;22.10;99.90;;;;;;1922971;75;21112;-92
2021/07/08 09:23:36;;;;;;;3.37;2.00;;;22.00;99.90;;;;;;1923304;75;21053;-87
2021/07/08 09:26:02;;;;;;;2.40;2.20;;;22.20;99.90;;;;;;1923909;75;21142;-84
2021/07/08 09:28:28;;;;;;;6.62;1.77;;;21.90;99.90;;;;;;1923159;75;21033;-91
2021/07/08 09:30:55;;;;;;;3.62;2.17;;;22.30;99.90;;;;;;1922954;75;21183;-89
2021/07/08 09:33:21;;;;;;;2.75;2.00;;;22.40;99.90;;;;;;1922845;75;21193;-87
2021/07/08 09:35:47;;;;;;;3.65;2.00;;;22.30;99.90;;;;;;1922529;73;21076;-89
2021/07/08 09:38:13;;;;;;;3.72;2.40;;;22.30;99.90;;;;;;1922661;75;21119;-87
2021/07/08 09:40:39;;;;;;;2.02;1.77;;;22.40;99.90;;;;;;1922723;75;21121;-86
2021/07/08 09:43:05;;;;;;;3.75;2.12;;;22.60;99.90;;;;;;1922791;75;21057;-89
2021/07/08 09:45:31;;;;;;;4.45;2.30;;;22.60;99.90;;;;;;1922962;75;21449;-88
2021/07/08 09:47:57;;;;;;;7.95;2.35;;;22.60;99.90;;;;;;1922840;75;21437;-89
2021/07/08 09:50:24;;;;;;;2.25;2.00;;;22.50;99.90;;;;;;1922771;75;21496;-90
2021/07/08 09:52:52;;;;;;;2.27;1.70;;;22.50;99.90;;;;;;1922717;75;21492;-89
2021/07/08 09:55:19;;;;;;;1.90;1.80;;;22.50;99.90;;;;;;1922574;73;21073;-89
2021/07/08 09:57:48;;;;;;;4.33;1.85;;;22.40;99.90;;;;;;1922697;73;21069;-89
2021/07/08 10:00:14;;;;;;;1.95;1.72;;;22.60;99.90;;;;;;1923183;73;21145;-90
2021/07/08 10:02:40;;;;;;;4.37;1.92;;;22.50;99.90;;;;;;1923036;73;21103;-87
2021/07/08 10:05:06;;;;;;;2.62;1.75;;;22.30;99.90;;;;;;1923145;75;21024;-89
2021/07/08 10:07:33;;;;;;;2.15;1.70;;;22.20;99.90;;;;;;1923017;73;21029;-89
2021/07/08 10:09:59;;;;;;;1.65;1.55;;;22.50;99.90;;;;;;1923193;75;21029;-91
2021/07/08 10:12:25;;;;;;;1.85;1.75;;;22.60;99.90;;;;;;1923091;75;21056;-92
2021/07/08 10:14:51;;;;;;;2.15;1.50;;;22.80;99.90;;;;;;1923782;75;21056;-89
2021/07/08 10:17:19;;;;;;;1.80;1.25;;;23.00;99.90;;;;;;1924463;73;21098;-89
2021/07/08 10:19:45;;;;;;;1.32;1.22;;;23.10;99.90;;;;;;1925662;72;21009;-89
2021/07/08 10:22:11;;;;;;;1.35;1.25;;;23.20;99.90;;;;;;1936134;73;21036;-87
2021/07/08 10:24:37;;;;;;;1.60;1.47;;;23.40;99.90;;;;;;1958208;73;21131;-88
2021/07/08 10:27:03;;;;;;;1.35;1.25;;;23.20;99.90;;;;;;1932447;73;21150;-88
2021/07/08 10:29:30;;;;;;;2.25;1.32;;;23.00;99.90;;;;;;1922559;75;21037;-88
2021/07/08 10:31:57;;;;;;;1.07;0.98;;;22.80;99.90;;;;;;1923044;75;21418;-88
2021/07/08 10:34:23;;;;;;;1.32;1.22;;;23.20;99.90;;;;;;1922815;73;21037;-84
2021/07/08 10:36:49;;;;;;;2.25;1.10;;;23.50;99.90;;;;;;1922840;75;21044;-90
2021/07/08 10:39:15;;;;;;;3.00;1.10;;;23.60;99.90;;;;;;1923240;75;21167;-87
2021/07/08 10:41:42;;;;;;;1.90;1.60;;;23.40;99.90;;;;;;1923296;75;21060;-82
2021/07/08 10:44:08;;;;;;;2.58;1.30;;;22.80;99.90;;;;;;1922602;75;21138;-86
2021/07/08 10:46:34;;;;;;;1.42;1.27;;;22.60;99.90;;;;;;1922776;73;21130;-86
2021/07/08 10:49:00;;;;;;;1.87;1.25;;;22.60;99.90;;;;;;1922988;73;21185;-88
2021/07/08 10:51:26;;;;;;;2.60;1.25;;;22.40;99.90;;;;;;1922896;73;21057;-85
2021/07/08 10:53:53;;;;;;;1.52;1.20;;;22.70;99.90;;;;;;1923804;73;21037;-90
2021/07/08 10:56:19;;;;;;;1.10;1.10;;;22.80;99.90;;;;;;1923839;75;21013;-91
2021/07/08 10:58:58;;;;;;;1.12;1.00;;;22.80;99.90;;;;;;1923756;75;21118;-88
2021/07/08 11:01:13;;;;;;;2.00;0.88;;;22.60;99.90;;;;;;1918671;74;21068;-92
2021/07/08 11:03:39;;;;;;;1.07;1.07;;;22.70;99.90;;;;;;1923784;75;21433;-86
2021/07/08 11:06:05;;;;;;;1.37;1.27;;;22.10;99.90;;;;;;1923724;75;21058;-90
2021/07/08 11:11:05;;;;;;;3.12;1.02;;;22.10;99.90;;;;;;1906775;74;21064;-90
2021/07/08 11:13:35;;;;;;;3.75;1.02;;;22.20;99.90;;;;;;1923432;75;21060;-89
2021/07/08 11:16:01;;;;;;;6.60;1.02;;;22.30;99.90;;;;;;1923447;75;21120;-89
2021/07/08 11:18:27;;;;;;;1.30;1.02;;;22.30;99.90;;;;;;1922967;75;21074;-89
2021/07/08 11:20:56;;;;;;;1.07;0.90;;;22.60;99.90;;;;;;1922894;75;21118;-89
2021/07/08 11:23:22;;;;;;;0.95;0.95;;;22.70;99.90;;;;;;1923046;75;21042;-90
2021/07/08 11:25:48;;;;;;;1.47;1.02;;;23.10;99.90;;;;;;1923187;75;21102;-85
2021/07/08 11:28:17;;;;;;;1.40;1.30;;;23.30;99.90;;;;;;1923400;75;21061;-89
2021/07/08 11:30:45;;;;;;;3.35;1.20;;;23.20;99.90;;;;;;1923080;73;21037;-89
2021/07/08 11:35:45;;;;;;;4.35;0.90;;;23.00;99.90;;;;;;1906240;74;21414;-89
2021/07/08 11:38:15;;;;;;;1.50;0.90;;;23.10;99.90;;;;;;1922709;75;21078;-85
2021/07/08 11:40:49;;;;;;;1.20;1.10;;;23.00;99.90;;;;;;1922230;73;21138;-87
2021/07/08 11:43:12;;;;;;;3.77;1.17;;;22.70;99.90;;;;;;1920841;74;21117;-87
2021/07/08 11:45:44;;;;;;;0.80;0.80;;;22.60;99.90;;;;;;1922122;75;21009;-88
2021/07/08 11:48:10;;;;;;;5.85;1.32;;;22.90;99.90;;;;;;1922245;75;21185;-87
2021/07/08 11:50:36;;;;;;;1.40;1.30;;;23.20;99.90;;;;;;1922050;73;21064;-87
2021/07/08 11:53:03;;;;;;;1.40;1.30;;;23.40;99.90;;;;;;1922251;75;21037;-88
2021/07/08 11:55:31;;;;;;;1.42;1.10;;;23.40;99.90;;;;;;1922147;75;21064;-86
2021/07/08 11:58:09;;;;;;;;;;;;;;;;;;;;;
2021/07/08 12:00:27;;;;;;;1.35;0.90;;;23.50;99.90;;;;;;1915198;74;21211;-86
2021/07/08 12:02:53;;;;;;;1.10;1.00;;;22.90;99.90;;;;;;1922124;73;21457;-86
2021/07/08 12:05:28;;;;;;;4.78;1.00;;;22.80;99.90;;;;;;1922025;75;21546;-87
2021/07/08 12:07:50;;;;;;;1.30;1.10;;;23.20;99.90;;;;;;1918817;74;21068;-86
2021/07/08 12:10:23;;;;;;;0.85;0.70;;;23.40;99.90;;;;;;1921990;74;21068;-87
2021/07/08 12:12:45;;;;;;;4.10;0.62;;;23.70;99.90;;;;;;1921600;74;21064;-86
2021/07/08 12:15:12;;;;;;;0.82;0.80;;;23.50;99.90;;;;;;1922197;75;21072;-85
2021/07/08 12:17:38;;;;;;;3.02;0.90;;;23.70;99.90;;;;;;1922181;75;21041;-87
2021/07/08 12:20:04;;;;;;;4.47;1.10;;;23.80;99.90;;;;;;1922012;75;21433;-87
2021/07/08 12:22:30;;;;;;;1.00;1.00;;;23.90;99.90;;;;;;1921890;73;21527;-86
2021/07/08 12:24:56;;;;;;;1.42;1.30;;;23.40;99.90;;;;;;1921991;75;21468;-86
2021/07/08 12:27:22;;;;;;;1.92;0.98;;;23.10;99.90;;;;;;1921882;75;21140;-87
2021/07/08 12:29:49;;;;;;;1.57;1.05;;;23.30;99.90;;;;;;1909670;75;21025;-84
2021/07/08 12:32:15;;;;;;;2.83;1.00;;;23.40;99.90;;;;;;1921918;75;21524;-84
2021/07/08 12:34:51;;;;;;;0.90;0.85;;;23.40;99.90;;;;;;1922319;75;21499;-82
2021/07/08 12:37:16;;;;;;;5.67;1.07;;;23.10;99.90;;;;;;1918811;74;21064;-81
2021/07/08 12:39:36;;;;;;;1.10;1.10;;;23.30;99.90;;;;;;1918315;74;21139;-85
2021/07/08 12:42:02;;;;;;;1.27;1.17;;;23.50;99.90;;;;;;1928529;73;21079;-84
2021/07/08 12:44:29;;;;;;;1.10;1.00;;;23.80;99.90;;;;;;1921775;73;21077;-84
2021/07/08 12:46:55;;;;;;;1.40;1.30;;;24.00;99.90;;;;;;1921849;73;21068;-84
2021/07/08 12:49:21;;;;;;;1.57;0.82;;;24.00;99.90;;;;;;1921776;75;21528;-84
2021/07/08 12:51:47;;;;;;;1.40;0.93;;;23.60;99.90;;;;;;1921889;75;21065;-84
2021/07/08 12:54:13;;;;;;;1.45;0.78;;;23.10;99.90;;;;;;1909323;75;21117;-83